Airport
Sochi International Airport (URSS)

 URSS / AER
Rostov-na-Donu CFPU
Rostov-na-Donu (URRV)
Rostov-na-Donu (URRV)
 43.44990, 39.95660  / 89 ft

 URSS 101900Z 07001MPS 9999 NSC 25/22 Q1006 WS ALL RWY R02/010070 R06/010070 NOSIG RMK R06/00000MPS QFE753
 TAF URSS 101055Z 1012/1112 28004G09MPS 9999 FEW040CB BECMG 1017/1018 05003G08MPS BKN016 BKN030CB OVC100 TEMPO 1018/1112 VRB09G15MPS 0700 +TSRA SQ BKN007 BKN020CB OVC100
Jeppesen, ЦАИ ГА
show charts
Scenery title Scenery type Flight Simulator 9 Flight Simulator X Prepar3D v2 Prepar3D v3 Prepar3D v4 Prepar3D v5 xPlane
Sochi URSS (P3Dv4.4+) freeware
URSS freeware
URSS freeware
URSS freeware
URSS(v10) freeware


2020 © VATRUS division (Privacy Policy)